Time;durP1;ratioP1;P1;durP2;ratioP2;P2;SDS_P1;SDS_P2;PMS_P1;PMS_P2;Temp;Humidity;BMP_temperature;BMP_pressure;BME280_temperature;BME280_humidity;BME280_pressure;Samples;Min_cycle;Max_cycle;Signal;HPM_P1;HPM_P2
2023/06/19 00:02:08;;;;;;;7.27;6.00;;;22.30;99.90;;;;;;5036180;28;20235;-60
2023/06/19 00:04:35;;;;;;;9.03;6.60;;;22.20;99.90;;;;;;5041099;28;20313;-60
2023/06/19 00:07:03;;;;;;;6.07;5.47;;;22.20;99.90;;;;;;5032247;28;20219;-60
2023/06/19 00:09:31;;;;;;;6.13;5.53;;;22.20;99.90;;;;;;5040054;28;20309;-60
2023/06/19 00:11:59;;;;;;;6.13;5.53;;;22.30;99.90;;;;;;5039683;28;20210;-61
2023/06/19 00:14:26;;;;;;;6.27;5.63;;;22.10;99.90;;;;;;5029299;28;20691;-60
2023/06/19 00:16:53;;;;;;;6.73;6.03;;;22.20;99.90;;;;;;5039730;28;20205;-60
2023/06/19 00:19:20;;;;;;;5.80;5.23;;;22.10;99.90;;;;;;5040942;28;20303;-60
2023/06/19 00:21:47;;;;;;;6.10;4.90;;;22.00;99.90;;;;;;5023042;28;20244;-60
2023/06/19 00:24:14;;;;;;;5.17;4.67;;;22.00;99.90;;;;;;5039749;28;20206;-60
2023/06/19 00:26:42;;;;;;;3.83;3.43;;;21.90;99.90;;;;;;5019015;28;21386;-60
2023/06/19 00:29:09;;;;;;;5.03;4.20;;;21.90;99.90;;;;;;5036985;28;20207;-60
2023/06/19 00:31:37;;;;;;;4.73;3.30;;;21.90;99.90;;;;;;5038768;28;20230;-60
2023/06/19 00:34:04;;;;;;;3.30;2.97;;;21.90;99.90;;;;;;5023570;28;20589;-60
2023/06/19 00:36:31;;;;;;;3.87;3.30;;;21.90;99.90;;;;;;5021794;28;20203;-60
2023/06/19 00:38:58;;;;;;;3.87;3.43;;;21.90;99.90;;;;;;5038187;28;20201;-61
2023/06/19 00:41:27;;;;;;;4.77;3.20;;;21.80;99.90;;;;;;5015967;28;20196;-60
2023/06/19 00:43:54;;;;;;;4.27;3.20;;;21.80;99.90;;;;;;5031754;28;20200;-61
2023/06/19 00:46:21;;;;;;;3.70;3.00;;;21.80;99.90;;;;;;5037483;28;20203;-60
2023/06/19 00:48:48;;;;;;;5.13;3.30;;;21.70;99.90;;;;;;5039119;28;20203;-61
2023/06/19 00:51:15;;;;;;;4.07;3.00;;;21.70;99.90;;;;;;5038786;28;20205;-61
2023/06/19 00:53:42;;;;;;;5.73;3.20;;;21.70;99.90;;;;;;5033379;28;20250;-60
2023/06/19 00:56:09;;;;;;;3.73;2.87;;;21.60;99.90;;;;;;5036950;28;20196;-60
2023/06/19 00:58:36;;;;;;;4.07;3.10;;;21.50;99.90;;;;;;5036326;28;20193;-60
2023/06/19 01:01:03;;;;;;;4.03;3.10;;;21.40;99.90;;;;;;5037724;28;20379;-61
2023/06/19 01:03:36;;;;;;;4.20;3.03;;;21.50;99.90;;;;;;5033891;28;20215;-60
2023/06/19 01:06:10;;;;;;;4.50;3.43;;;21.30;99.90;;;;;;5039668;28;20300;-60
2023/06/19 01:08:50;;;;;;;4.03;3.10;;;21.30;99.90;;;;;;5037312;28;20200;-60
2023/06/19 01:11:23;;;;;;;3.37;2.70;;;21.40;99.90;;;;;;5034665;28;20204;-62
2023/06/19 01:13:59;;;;;;;4.23;3.00;;;21.40;99.90;;;;;;5033072;28;20224;-60
2023/06/19 01:16:28;;;;;;;3.23;2.73;;;21.20;99.90;;;;;;5038084;28;20299;-60
2023/06/19 01:18:55;;;;;;;3.53;2.60;;;21.20;99.90;;;;;;5037276;28;20220;-60
2023/06/19 01:21:23;;;;;;;3.30;2.70;;;21.10;99.90;;;;;;5037188;28;20334;-61
2023/06/19 01:23:50;;;;;;;3.53;3.07;;;21.10;99.90;;;;;;5036566;28;20239;-61
2023/06/19 01:26:18;;;;;;;3.80;3.40;;;21.00;99.90;;;;;;5023467;28;20642;-61
2023/06/19 01:28:46;;;;;;;4.10;2.90;;;21.00;99.90;;;;;;5032936;28;20285;-61
2023/06/19 01:31:23;;;;;;;3.37;2.83;;;21.00;99.90;;;;;;5037589;28;20707;-60
2023/06/19 01:33:52;;;;;;;4.30;2.50;;;21.00;99.90;;;;;;5036538;28;20235;-61
2023/06/19 01:36:20;;;;;;;4.37;2.73;;;21.10;99.90;;;;;;5038549;28;20223;-62
2023/06/19 01:38:49;;;;;;;4.60;2.67;;;20.90;99.90;;;;;;5036286;28;20219;-61
2023/06/19 01:41:18;;;;;;;4.37;2.30;;;20.90;99.90;;;;;;5037314;28;20564;-61
2023/06/19 01:43:47;;;;;;;2.87;2.47;;;21.00;99.90;;;;;;5038289;28;20333;-60
2023/06/19 01:46:14;;;;;;;3.33;2.27;;;21.00;99.90;;;;;;5019491;28;20621;-60
2023/06/19 01:48:41;;;;;;;3.33;2.10;;;20.80;99.90;;;;;;5022819;28;20204;-61
2023/06/19 01:51:08;;;;;;;2.03;1.83;;;20.80;99.90;;;;;;5039890;28;20617;-61
2023/06/19 01:53:35;;;;;;;2.47;2.13;;;20.80;99.90;;;;;;5019537;28;20207;-60
2023/06/19 01:56:02;;;;;;;3.30;2.50;;;20.80;99.90;;;;;;5038439;28;20214;-60
2023/06/19 01:58:29;;;;;;;3.70;2.33;;;20.80;99.90;;;;;;5035247;28;20652;-61
2023/06/19 02:00:56;;;;;;;2.70;2.20;;;20.70;99.90;;;;;;5039708;28;20211;-60
2023/06/19 02:03:22;;;;;;;3.30;1.97;;;20.80;99.90;;;;;;5037167;28;20207;-61
2023/06/19 02:05:50;;;;;;;2.53;2.00;;;20.70;99.90;;;;;;5019589;28;20203;-60
2023/06/19 02:08:16;;;;;;;3.47;2.10;;;20.80;99.90;;;;;;5037049;28;20198;-60
2023/06/19 02:10:43;;;;;;;2.47;2.03;;;20.80;99.90;;;;;;5033366;28;20200;-60
2023/06/19 02:13:10;;;;;;;2.87;2.17;;;20.90;99.90;;;;;;5017794;28;20203;-60
2023/06/19 02:15:38;;;;;;;2.33;2.00;;;21.00;99.90;;;;;;5017967;28;20253;-60
2023/06/19 02:18:05;;;;;;;3.03;2.27;;;20.80;99.90;;;;;;5037853;28;20682;-60
2023/06/19 02:20:32;;;;;;;3.77;2.10;;;20.60;99.90;;;;;;5036372;28;20864;-60
2023/06/19 02:22:59;;;;;;;3.03;2.03;;;20.60;99.90;;;;;;5035813;28;20249;-60
2023/06/19 02:25:26;;;;;;;3.00;2.30;;;20.60;99.90;;;;;;5002214;28;20212;-60
2023/06/19 02:27:53;;;;;;;2.50;1.90;;;20.60;99.90;;;;;;5020210;28;20212;-61
2023/06/19 02:30:20;;;;;;;2.87;2.20;;;20.60;99.90;;;;;;5032415;28;20204;-61
2023/06/19 02:32:47;;;;;;;2.60;2.33;;;20.60;99.90;;;;;;5035522;28;20208;-60
2023/06/19 02:35:15;;;;;;;4.93;2.27;;;20.70;99.90;;;;;;5036382;28;20212;-62
2023/06/19 02:37:42;;;;;;;2.70;2.10;;;20.60;99.90;;;;;;5021619;28;20659;-60
2023/06/19 02:40:10;;;;;;;2.93;2.07;;;20.50;99.90;;;;;;5037619;28;20215;-62
2023/06/19 02:42:37;;;;;;;2.90;1.97;;;20.50;99.90;;;;;;5036360;28;21090;-60
2023/06/19 02:45:04;;;;;;;2.87;2.20;;;20.40;99.90;;;;;;5033634;28;20315;-60
2023/06/19 02:47:32;;;;;;;3.23;1.90;;;20.40;99.90;;;;;;5035691;28;20192;-60
2023/06/19 02:49:59;;;;;;;3.47;2.47;;;20.40;99.90;;;;;;5019467;28;20208;-60
2023/06/19 02:52:28;;;;;;;4.47;2.10;;;20.30;99.90;;;;;;5016851;28;22005;-60
2023/06/19 02:54:55;;;;;;;3.20;2.30;;;20.40;99.90;;;;;;5034811;28;20236;-60
2023/06/19 02:57:22;;;;;;;2.43;1.83;;;20.20;99.90;;;;;;5035895;28;20584;-60
2023/06/19 02:59:49;;;;;;;3.00;2.23;;;20.20;99.90;;;;;;5033201;28;20545;-61
2023/06/19 03:02:16;;;;;;;3.13;1.80;;;20.10;99.90;;;;;;5030984;28;20290;-61
2023/06/19 03:04:44;;;;;;;4.10;2.03;;;20.20;99.90;;;;;;5003109;28;20232;-61
2023/06/19 03:07:13;;;;;;;3.30;2.53;;;20.20;99.90;;;;;;5037328;28;20211;-61
2023/06/19 03:09:40;;;;;;;2.53;2.13;;;20.20;99.90;;;;;;5037339;28;20311;-61
2023/06/19 03:12:09;;;;;;;2.50;2.30;;;20.30;99.90;;;;;;5036957;28;20196;-61
2023/06/19 03:14:36;;;;;;;2.07;1.87;;;20.30;99.90;;;;;;5035373;28;20218;-61
2023/06/19 03:17:03;;;;;;;2.30;2.10;;;20.40;99.90;;;;;;5016127;28;20196;-61
2023/06/19 03:19:30;;;;;;;2.40;2.20;;;20.40;99.90;;;;;;5034756;28;20759;-61
2023/06/19 03:21:57;;;;;;;2.63;2.10;;;20.40;99.90;;;;;;5036980;28;20228;-61
2023/06/19 03:24:25;;;;;;;3.40;2.40;;;20.40;99.90;;;;;;5030776;28;20203;-61
2023/06/19 03:26:53;;;;;;;2.47;2.10;;;20.20;99.90;;;;;;5035504;28;20299;-61
2023/06/19 03:29:20;;;;;;;4.27;3.17;;;20.30;99.90;;;;;;5030494;28;20201;-61
2023/06/19 03:31:47;;;;;;;3.20;2.90;;;20.20;99.90;;;;;;5013751;28;20204;-61
2023/06/19 03:34:14;;;;;;;3.20;2.50;;;20.20;99.90;;;;;;5036996;28;20212;-61
2023/06/19 03:36:40;;;;;;;4.63;2.70;;;20.20;99.90;;;;;;5037227;28;20213;-61
2023/06/19 03:39:07;;;;;;;2.83;2.53;;;20.20;99.90;;;;;;5017603;28;20900;-61
2023/06/19 03:41:34;;;;;;;3.83;2.70;;;20.20;99.90;;;;;;5018283;28;20294;-61
2023/06/19 03:44:01;;;;;;;3.73;2.50;;;20.30;99.90;;;;;;5033072;28;20219;-62
2023/06/19 03:46:28;;;;;;;3.00;2.40;;;20.30;99.90;;;;;;5017619;28;20204;-62
2023/06/19 03:48:55;;;;;;;3.33;2.90;;;20.20;99.90;;;;;;5014434;28;20204;-59
2023/06/19 03:51:22;;;;;;;4.43;3.00;;;20.20;99.90;;;;;;5036970;28;20204;-61
2023/06/19 03:53:49;;;;;;;3.10;2.67;;;20.10;99.90;;;;;;5039721;28;20558;-59
2023/06/19 03:56:16;;;;;;;3.00;2.70;;;20.10;99.90;;;;;;5040280;28;20212;-59
2023/06/19 03:58:43;;;;;;;3.23;2.60;;;19.90;99.90;;;;;;5040298;28;20203;-61
2023/06/19 04:01:10;;;;;;;2.80;2.50;;;19.90;99.90;;;;;;5038760;28;20613;-61
2023/06/19 04:03:37;;;;;;;3.27;2.97;;;20.00;99.90;;;;;;5038265;28;20238;-61
2023/06/19 04:06:07;;;;;;;4.13;3.13;;;20.00;99.90;;;;;;5022421;28;20274;-60
2023/06/19 04:08:34;;;;;;;3.63;2.67;;;20.00;99.90;;;;;;5027658;28;20806;-61
2023/06/19 04:11:01;;;;;;;3.90;3.13;;;20.10;99.90;;;;;;5020782;28;20203;-61
2023/06/19 04:13:28;;;;;;;3.13;2.87;;;20.10;99.90;;;;;;5019594;28;20204;-61
2023/06/19 04:15:55;;;;;;;3.60;3.13;;;20.20;99.90;;;;;;5009162;28;20680;-59
2023/06/19 04:18:22;;;;;;;3.47;3.10;;;20.10;99.90;;;;;;5017513;28;20227;-59
2023/06/19 04:20:49;;;;;;;3.47;3.13;;;20.00;99.90;;;;;;5038933;28;20242;-59
2023/06/19 04:23:16;;;;;;;6.10;3.70;;;20.20;99.90;;;;;;5014167;28;20587;-61
2023/06/19 04:25:43;;;;;;;5.53;3.97;;;20.10;99.90;;;;;;5017438;28;20213;-60
2023/06/19 04:28:09;;;;;;;7.53;3.80;;;20.00;99.90;;;;;;5016981;28;20219;-61
2023/06/19 04:30:39;;;;;;;6.63;3.20;;;19.80;99.90;;;;;;5019901;28;20260;-61
2023/06/19 04:33:07;;;;;;;4.30;3.40;;;19.90;99.90;;;;;;5015354;28;20209;-61
2023/06/19 04:35:39;;;;;;;5.43;4.00;;;20.10;99.90;;;;;;5015245;28;20215;-61
2023/06/19 04:38:08;;;;;;;5.37;4.60;;;20.10;99.90;;;;;;5002332;28;20211;-60
2023/06/19 04:40:35;;;;;;;6.73;4.60;;;20.10;99.90;;;;;;5018906;28;20231;-61
2023/06/19 04:43:02;;;;;;;5.87;5.17;;;20.10;99.90;;;;;;5017625;28;20209;-60
2023/06/19 04:45:29;;;;;;;6.87;5.57;;;20.00;99.90;;;;;;5019847;28;20196;-60
2023/06/19 04:47:56;;;;;;;6.73;6.07;;;20.00;99.90;;;;;;5018578;28;20203;-61
2023/06/19 04:50:23;;;;;;;7.00;5.77;;;20.00;99.90;;;;;;5015628;28;21076;-60
2023/06/19 04:52:50;;;;;;;6.63;5.93;;;20.10;99.90;;;;;;4986917;28;20209;-60
2023/06/19 04:55:18;;;;;;;7.40;6.67;;;20.10;99.90;;;;;;5018622;28;20216;-61
2023/06/19 04:57:45;;;;;;;6.47;5.63;;;20.10;99.90;;;;;;5017682;28;20200;-61
2023/06/19 05:00:14;;;;;;;6.67;5.83;;;20.00;99.90;;;;;;5008476;28;20371;-65
2023/06/19 05:02:47;;;;;;;6.37;5.77;;;20.10;99.90;;;;;;5012007;28;20200;-60
2023/06/19 05:05:14;;;;;;;6.60;5.03;;;20.20;99.90;;;;;;5015677;28;22460;-60
2023/06/19 05:07:41;;;;;;;5.77;4.50;;;20.10;99.90;;;;;;5016574;28;20291;-60
2023/06/19 05:10:08;;;;;;;5.40;4.83;;;20.00;99.90;;;;;;5016258;28;20216;-60
2023/06/19 05:12:35;;;;;;;5.07;4.27;;;20.10;99.90;;;;;;5015008;28;20204;-60
2023/06/19 05:15:03;;;;;;;8.60;5.53;;;20.20;99.90;;;;;;5017286;28;20221;-60
2023/06/19 05:17:30;;;;;;;5.40;4.90;;;20.20;99.90;;;;;;5015266;28;20196;-61
2023/06/19 05:19:57;;;;;;;7.20;4.80;;;20.30;99.90;;;;;;5018501;28;20226;-61
2023/06/19 05:22:24;;;;;;;6.50;4.73;;;20.20;99.90;;;;;;5024717;28;20784;-61
2023/06/19 05:24:50;;;;;;;5.90;5.40;;;20.20;99.90;;;;;;5034193;28;20208;-60
2023/06/19 05:27:18;;;;;;;4.90;4.47;;;20.20;99.90;;;;;;5022414;28;20208;-61
2023/06/19 05:29:44;;;;;;;7.20;5.40;;;20.20;99.90;;;;;;5038033;28;20205;-61
2023/06/19 05:32:13;;;;;;;7.17;5.83;;;20.20;99.90;;;;;;5038995;28;20199;-62
2023/06/19 05:34:39;;;;;;;6.63;5.63;;;20.10;99.90;;;;;;5040487;28;20212;-62
2023/06/19 05:37:06;;;;;;;7.93;6.70;;;20.20;99.90;;;;;;5040493;28;20232;-61
2023/06/19 05:39:33;;;;;;;7.80;7.00;;;20.00;99.90;;;;;;5037151;28;20196;-61
2023/06/19 05:42:01;;;;;;;8.17;7.37;;;20.10;99.90;;;;;;5039748;28;20238;-61
2023/06/19 05:44:28;;;;;;;9.13;8.20;;;20.00;99.90;;;;;;5038110;28;20215;-62
2023/06/19 05:46:55;;;;;;;9.73;8.73;;;20.00;99.90;;;;;;5032933;28;20725;-61
2023/06/19 05:49:22;;;;;;;9.53;8.13;;;20.10;99.90;;;;;;5038973;28;20219;-61
2023/06/19 05:51:58;;;;;;;9.04;8.13;;;20.20;99.90;;;;;;4978322;28;10000507;-61
2023/06/19 05:54:26;;;;;;;9.70;8.70;;;20.30;99.90;;;;;;5019194;28;21164;-61
2023/06/19 05:56:53;;;;;;;9.00;8.00;;;20.20;99.90;;;;;;5009299;28;20495;-61
2023/06/19 05:59:21;;;;;;;9.40;8.50;;;20.20;99.90;;;;;;5022525;28;20864;-60
2023/06/19 06:01:50;;;;;;;11.60;9.10;;;20.20;99.90;;;;;;5011249;28;20632;-60
2023/06/19 06:04:18;;;;;;;9.37;8.43;;;20.30;99.90;;;;;;5011303;28;20962;-61
2023/06/19 06:06:45;;;;;;;9.67;8.77;;;20.30;99.90;;;;;;5018016;28;20233;-61
2023/06/19 06:09:13;;;;;;;10.43;9.53;;;20.30;99.90;;;;;;5017879;28;20277;-61
2023/06/19 06:11:40;;;;;;;10.57;9.27;;;20.40;99.90;;;;;;5016220;28;20211;-61
2023/06/19 06:14:07;;;;;;;10.43;9.43;;;20.50;99.90;;;;;;5031785;28;20603;-62
2023/06/19 06:16:35;;;;;;;9.80;8.87;;;20.50;99.90;;;;;;5035859;28;20239;-61
2023/06/19 06:19:02;;;;;;;10.10;9.20;;;20.50;99.90;;;;;;5031694;28;21115;-61
2023/06/19 06:21:29;;;;;;;9.50;8.50;;;20.50;99.90;;;;;;5005988;28;20203;-62
2023/06/19 06:23:56;;;;;;;9.27;8.30;;;20.50;99.90;;;;;;5034702;28;20882;-61
2023/06/19 06:26:23;;;;;;;9.47;8.53;;;20.50;99.90;;;;;;5031299;28;20207;-60
2023/06/19 06:28:50;;;;;;;10.53;8.47;;;20.40;99.90;;;;;;5027916;28;20231;-61
2023/06/19 06:31:17;;;;;;;8.43;7.57;;;20.50;99.90;;;;;;5032761;28;20601;-61
2023/06/19 06:33:43;;;;;;;9.17;7.50;;;20.60;99.90;;;;;;5012158;28;20230;-60
2023/06/19 06:36:10;;;;;;;7.97;7.03;;;20.50;99.90;;;;;;5033199;28;20253;-60
2023/06/19 06:38:48;;;;;;;7.43;6.73;;;20.30;99.90;;;;;;5034617;28;20203;-61
2023/06/19 06:41:15;;;;;;;8.63;6.97;;;20.30;99.90;;;;;;5024575;28;20215;-61
2023/06/19 06:43:42;;;;;;;10.03;8.00;;;20.70;99.90;;;;;;5025581;28;20911;-60
2023/06/19 06:46:10;;;;;;;10.30;8.80;;;20.70;99.90;;;;;;5031404;28;20208;-60
2023/06/19 06:48:37;;;;;;;8.20;7.40;;;20.90;99.90;;;;;;5028490;28;20199;-62
2023/06/19 06:51:04;;;;;;;9.97;8.47;;;21.20;99.90;;;;;;5033179;28;20208;-61
2023/06/19 06:53:33;;;;;;;7.80;7.00;;;21.00;99.90;;;;;;5027883;28;20210;-59
2023/06/19 06:56:00;;;;;;;12.17;7.90;;;21.00;99.90;;;;;;5033231;28;20221;-61
2023/06/19 06:58:27;;;;;;;9.37;7.67;;;21.00;99.90;;;;;;5030914;28;20775;-59
2023/06/19 07:00:55;;;;;;;8.37;7.43;;;20.80;99.90;;;;;;5031071;28;20817;-59
2023/06/19 07:03:22;;;;;;;9.03;8.10;;;20.90;99.90;;;;;;5029859;28;20192;-61
2023/06/19 07:05:49;;;;;;;9.27;8.37;;;21.20;99.90;;;;;;5012735;28;20300;-61
2023/06/19 07:08:16;;;;;;;9.73;8.77;;;21.20;99.90;;;;;;5026467;28;20205;-61
2023/06/19 07:10:43;;;;;;;9.07;8.27;;;21.00;99.90;;;;;;5039626;28;20578;-62
2023/06/19 07:13:10;;;;;;;10.97;9.87;;;21.10;99.90;;;;;;5030392;28;20209;-62
2023/06/19 07:15:37;;;;;;;10.33;9.33;;;21.40;99.90;;;;;;5024656;28;20219;-61
2023/06/19 07:18:03;;;;;;;11.40;10.20;;;21.60;99.90;;;;;;5017925;28;20744;-61
2023/06/19 07:20:30;;;;;;;11.30;10.30;;;21.80;99.90;;;;;;5035696;28;20235;-61
2023/06/19 07:22:58;;;;;;;11.50;10.10;;;21.60;99.90;;;;;;5036113;28;20239;-61
2023/06/19 07:25:25;;;;;;;12.70;10.10;;;21.50;99.90;;;;;;5037328;28;20290;-61
2023/06/19 07:27:52;;;;;;;10.13;9.13;;;21.40;99.90;;;;;;5034556;28;20215;-62
2023/06/19 07:30:19;;;;;;;12.23;9.93;;;21.50;99.90;;;;;;5041207;28;20215;-62
2023/06/19 07:32:46;;;;;;;9.73;8.73;;;21.50;99.90;;;;;;5027532;28;20299;-63
2023/06/19 07:35:13;;;;;;;12.70;10.17;;;21.40;99.90;;;;;;5022348;28;20219;-61
2023/06/19 07:37:40;;;;;;;11.50;10.43;;;21.50;99.90;;;;;;5040966;28;20218;-62
2023/06/19 07:40:07;;;;;;;12.90;11.37;;;21.40;99.90;;;;;;5022701;28;20205;-61
2023/06/19 07:42:34;;;;;;;11.13;9.93;;;21.30;99.90;;;;;;5038842;28;20203;-61
2023/06/19 07:45:02;;;;;;;10.93;9.77;;;21.20;99.90;;;;;;5036762;28;20199;-61
2023/06/19 07:47:29;;;;;;;13.20;12.00;;;21.50;99.90;;;;;;5032916;28;21496;-61
2023/06/19 07:49:56;;;;;;;13.20;12.00;;;21.50;99.90;;;;;;5038372;28;20303;-61
2023/06/19 07:52:22;;;;;;;12.20;11.03;;;21.40;99.90;;;;;;5016495;28;20256;-61
2023/06/19 07:54:57;;;;;;;13.23;12.03;;;21.60;99.90;;;;;;5036896;28;20212;-61
2023/06/19 07:57:25;;;;;;;13.70;12.30;;;22.00;99.90;;;;;;5039143;28;20204;-62
2023/06/19 07:59:54;;;;;;;11.40;10.40;;;22.20;99.90;;;;;;5039453;28;20203;-61
2023/06/19 08:02:21;;;;;;;12.33;11.13;;;22.30;99.90;;;;;;5034667;28;20207;-60
2023/06/19 08:04:48;;;;;;;14.73;11.00;;;22.50;99.90;;;;;;5041364;28;20676;-61
2023/06/19 08:07:16;;;;;;;12.60;10.30;;;22.60;99.90;;;;;;5040801;28;20242;-59
2023/06/19 08:09:43;;;;;;;12.13;10.87;;;22.50;99.90;;;;;;5039349;28;20213;-59
2023/06/19 08:12:09;;;;;;;13.30;11.90;;;22.70;99.90;;;;;;5041165;28;20280;-62
2023/06/19 08:14:38;;;;;;;15.33;12.03;;;22.70;99.90;;;;;;5042122;28;20202;-62
2023/06/19 08:17:05;;;;;;;13.70;12.40;;;22.90;99.90;;;;;;5032593;28;20234;-61
2023/06/19 08:19:32;;;;;;;12.97;11.73;;;22.70;99.90;;;;;;5038846;28;20224;-61
2023/06/19 08:21:59;;;;;;;11.73;10.73;;;22.90;99.90;;;;;;5015689;28;20545;-61
2023/06/19 08:24:26;;;;;;;11.20;10.20;;;22.90;99.90;;;;;;5032389;28;20203;-62
2023/06/19 08:26:53;;;;;;;14.17;12.77;;;23.20;99.90;;;;;;5037897;28;20203;-60
2023/06/19 08:29:20;;;;;;;14.30;12.90;;;22.50;99.90;;;;;;5033773;28;20212;-60
2023/06/19 08:31:47;;;;;;;14.40;13.00;;;22.50;99.90;;;;;;5040389;28;20197;-61
2023/06/19 08:34:14;;;;;;;14.00;12.60;;;22.60;99.90;;;;;;5036853;28;20283;-60
2023/06/19 08:36:41;;;;;;;12.47;11.27;;;22.50;99.90;;;;;;5029504;28;20212;-60
2023/06/19 08:39:08;;;;;;;14.87;13.33;;;22.80;99.90;;;;;;5037212;28;20188;-60
2023/06/19 08:41:37;;;;;;;12.90;11.67;;;22.60;99.90;;;;;;5021663;28;20210;-61
2023/06/19 08:44:07;;;;;;;13.33;12.07;;;23.10;99.90;;;;;;5035897;28;20207;-61
2023/06/19 08:46:36;;;;;;;12.90;11.70;;;23.30;99.90;;;;;;5028147;28;20845;-60
2023/06/19 08:49:06;;;;;;;14.63;13.13;;;23.30;99.90;;;;;;5022299;28;20204;-61
2023/06/19 08:51:33;;;;;;;13.53;12.33;;;23.10;99.90;;;;;;5035696;28;20208;-61
2023/06/19 08:54:04;;;;;;;13.60;12.23;;;23.10;99.90;;;;;;5021328;28;20301;-61
2023/06/19 08:56:37;;;;;;;14.80;13.40;;;23.20;99.90;;;;;;5022672;28;20226;-60
2023/06/19 08:59:12;;;;;;;14.23;12.93;;;22.80;99.90;;;;;;5040398;28;20218;-60
2023/06/19 09:01:39;;;;;;;14.30;12.90;;;23.00;99.90;;;;;;5032627;28;20216;-60
2023/06/19 09:04:13;;;;;;;14.37;12.87;;;23.30;99.90;;;;;;5031468;28;20203;-62
2023/06/19 09:06:54;;;;;;;15.63;14.03;;;23.60;99.90;;;;;;5034293;28;20214;-61
2023/06/19 09:09:23;;;;;;;16.40;14.90;;;23.30;99.90;;;;;;5028818;28;20994;-59
2023/06/19 09:12:07;;;;;;;16.57;14.97;;;23.70;99.90;;;;;;5033746;28;20261;-57
2023/06/19 09:14:38;;;;;;;13.43;12.27;;;24.00;99.90;;;;;;5020209;28;20198;-58
2023/06/19 09:17:07;;;;;;;13.03;11.83;;;24.70;99.90;;;;;;5034097;28;20227;-60
2023/06/19 09:19:39;;;;;;;16.00;14.40;;;25.00;99.90;;;;;;5026615;28;21222;-57
2023/06/19 09:22:08;;;;;;;12.60;11.47;;;25.00;99.90;;;;;;5037509;28;20279;-58
2023/06/19 09:24:40;;;;;;;14.70;13.30;;;24.80;99.90;;;;;;5025969;28;20197;-58
2023/06/19 09:27:09;;;;;;;13.77;12.47;;;24.60;99.90;;;;;;5032783;28;20213;-58
2023/06/19 09:29:42;;;;;;;14.30;12.90;;;24.70;99.90;;;;;;5029281;28;20769;-57
2023/06/19 09:32:15;;;;;;;13.63;12.23;;;24.80;99.90;;;;;;5038713;28;20554;-58
2023/06/19 09:34:42;;;;;;;12.00;10.87;;;25.30;99.90;;;;;;5038280;28;20549;-58
2023/06/19 09:37:10;;;;;;;11.60;10.53;;;25.40;99.90;;;;;;5033251;28;20572;-58
2023/06/19 09:39:38;;;;;;;14.63;12.90;;;25.50;99.90;;;;;;5019681;28;20223;-58
2023/06/19 09:42:09;;;;;;;12.17;10.97;;;25.40;99.90;;;;;;5036028;28;20234;-58
2023/06/19 09:44:41;;;;;;;11.63;10.63;;;25.30;99.90;;;;;;5040290;28;20196;-58
2023/06/19 09:47:22;;;;;;;12.23;11.03;;;26.00;99.90;;;;;;5035989;28;20199;-59
2023/06/19 09:49:54;;;;;;;11.00;9.90;;;25.60;99.90;;;;;;5036128;28;20219;-58
2023/06/19 09:52:23;;;;;;;11.63;10.23;;;26.20;99.90;;;;;;5032543;28;20214;-58
2023/06/19 09:54:54;;;;;;;10.87;9.73;;;25.90;99.90;;;;;;5026796;28;20207;-62
2023/06/19 09:57:21;;;;;;;11.87;10.63;;;25.90;99.90;;;;;;5034424;28;20773;-59
2023/06/19 09:59:53;;;;;;;12.20;11.00;;;26.50;99.90;;;;;;5030832;28;20736;-59
2023/06/19 10:02:22;;;;;;;12.73;11.40;;;26.50;99.90;;;;;;5032088;28;20204;-58
2023/06/19 10:04:52;;;;;;;10.43;8.45;;;26.10;99.90;;;;;;5027455;28;20725;-58
2023/06/19 10:07:23;;;;;;;8.97;8.17;;;26.40;99.90;;;;;;5032359;28;20212;-59
2023/06/19 10:10:04;;;;;;;11.57;10.43;;;26.90;99.90;;;;;;5032996;28;20203;-58
2023/06/19 10:12:42;;;;;;;11.00;9.90;;;27.10;99.90;;;;;;5025335;28;20594;-58
2023/06/19 10:15:10;;;;;;;13.85;10.00;;;27.60;99.90;;;;;;5013971;28;20222;-59
2023/06/19 10:17:42;;;;;;;10.48;9.48;;;27.50;99.90;;;;;;5031929;28;20294;-59
2023/06/19 10:20:32;;;;;;;10.32;9.23;;;27.70;99.90;;;;;;5017552;28;20265;-59
2023/06/19 10:23:06;;;;;;;13.23;9.35;;;27.50;99.90;;;;;;5030612;28;20396;-58
2023/06/19 10:25:44;;;;;;;13.68;9.93;;;27.50;99.90;;;;;;5037264;28;21360;-58
2023/06/19 10:28:17;;;;;;;10.57;9.23;;;27.40;99.90;;;;;;5027010;28;20243;-59
2023/06/19 10:30:44;;;;;;;14.63;10.50;;;27.50;99.90;;;;;;5029911;28;20223;-58
2023/06/19 10:33:11;;;;;;;9.97;8.97;;;27.00;99.90;;;;;;5032500;28;20207;-58
2023/06/19 10:35:41;;;;;;;12.00;10.80;;;26.40;99.90;;;;;;5035653;28;20189;-58
2023/06/19 10:38:09;;;;;;;11.07;9.13;;;26.40;99.90;;;;;;5032876;28;20200;-58
2023/06/19 10:40:39;;;;;;;10.47;9.47;;;26.40;99.90;;;;;;5033116;28;20332;-58
2023/06/19 10:43:05;;;;;;;10.47;9.57;;;26.50;99.90;;;;;;5034236;28;20557;-58
2023/06/19 10:45:32;;;;;;;10.80;9.80;;;26.00;99.90;;;;;;5034527;28;20207;-58
2023/06/19 10:48:04;;;;;;;9.70;8.73;;;26.10;99.90;;;;;;5036718;28;20206;-58
2023/06/19 10:50:36;;;;;;;8.47;7.67;;;25.80;99.90;;;;;;5033780;28;20347;-59
2023/06/19 10:53:04;;;;;;;8.97;8.10;;;25.70;99.90;;;;;;5025763;28;20254;-58
2023/06/19 10:55:31;;;;;;;8.93;7.90;;;25.90;99.90;;;;;;5034158;28;20204;-58
2023/06/19 10:58:02;;;;;;;9.87;8.90;;;26.20;99.90;;;;;;5034827;28;20224;-58
2023/06/19 11:00:31;;;;;;;8.73;7.67;;;26.80;99.90;;;;;;5014697;28;20315;-58
2023/06/19 11:02:58;;;;;;;10.37;8.87;;;27.60;99.90;;;;;;5032497;28;20204;-59
2023/06/19 11:05:27;;;;;;;9.23;8.33;;;27.00;99.90;;;;;;5034739;28;20199;-58
2023/06/19 11:07:58;;;;;;;10.10;8.30;;;27.10;99.90;;;;;;5034774;28;20272;-62
2023/06/19 11:10:28;;;;;;;10.90;9.37;;;27.30;99.90;;;;;;5035017;28;20199;-58
2023/06/19 11:12:57;;;;;;;10.50;9.57;;;26.80;99.90;;;;;;5032752;28;20262;-58
2023/06/19 11:15:31;;;;;;;9.03;8.13;;;26.50;99.90;;;;;;5038225;28;20219;-59
2023/06/19 11:17:59;;;;;;;7.23;6.53;;;27.00;99.90;;;;;;5027957;28;20722;-59
2023/06/19 11:20:26;;;;;;;8.33;7.53;;;27.20;99.90;;;;;;5036772;28;20728;-61
2023/06/19 11:23:00;;;;;;;10.10;8.03;;;27.80;99.90;;;;;;5015510;28;20382;-59
2023/06/19 11:25:38;;;;;;;10.93;7.67;;;27.90;99.90;;;;;;5036035;28;20239;-58
2023/06/19 11:28:12;;;;;;;8.57;7.30;;;27.70;99.90;;;;;;5026500;28;20207;-58
2023/06/19 11:30:40;;;;;;;10.60;7.37;;;27.90;99.90;;;;;;5032652;28;20207;-61
2023/06/19 11:33:21;;;;;;;9.33;7.63;;;28.70;99.90;;;;;;5016715;28;20337;-59
2023/06/19 11:35:50;;;;;;;8.80;8.00;;;29.10;99.90;;;;;;5035183;28;20643;-58
2023/06/19 11:38:21;;;;;;;8.03;7.23;;;28.20;99.90;;;;;;5034604;28;20783;-59
2023/06/19 11:40:49;;;;;;;7.88;6.15;;;28.10;99.90;;;;;;5034655;28;20200;-58
2023/06/19 11:43:30;;;;;;;8.98;7.15;;;28.80;99.90;;;;;;5026374;28;20558;-60
2023/06/19 11:46:04;;;;;;;9.70;6.50;;;29.50;99.90;;;;;;5030002;28;20224;-58
2023/06/19 11:48:32;;;;;;;7.22;6.38;;;29.30;99.90;;;;;;5018992;28;20207;-64
2023/06/19 11:50:59;;;;;;;8.13;7.03;;;29.30;99.90;;;;;;5035291;28;20537;-59
2023/06/19 11:53:26;;;;;;;11.13;6.38;;;28.60;99.90;;;;;;5034644;28;22447;-59
2023/06/19 11:55:53;;;;;;;8.20;6.97;;;28.80;99.90;;;;;;5040933;28;20636;-60
2023/06/19 11:58:20;;;;;;;7.70;6.32;;;28.50;99.90;;;;;;5036027;28;20315;-61
2023/06/19 12:00:48;;;;;;;6.88;6.18;;;29.50;99.90;;;;;;5031253;28;20245;-60
2023/06/19 12:03:15;;;;;;;7.65;5.95;;;29.80;99.90;;;;;;5029972;28;20340;-60
2023/06/19 12:05:43;;;;;;;9.73;6.57;;;30.00;99.90;;;;;;5028627;28;20237;-60
2023/06/19 12:08:10;;;;;;;8.02;6.35;;;29.50;99.90;;;;;;5030112;28;20207;-61
2023/06/19 12:10:37;;;;;;;6.53;5.13;;;28.90;99.90;;;;;;5037382;28;20282;-60
2023/06/19 12:13:04;;;;;;;8.80;5.90;;;29.30;99.90;;;;;;5029047;28;20232;-58
2023/06/19 12:15:31;;;;;;;6.53;5.72;;;29.40;99.90;;;;;;5034876;28;20256;-58
2023/06/19 12:17:59;;;;;;;7.35;6.40;;;28.50;99.90;;;;;;5037102;28;20211;-60
2023/06/19 12:20:27;;;;;;;6.45;5.63;;;27.50;99.90;;;;;;5034467;28;20776;-60
2023/06/19 12:22:54;;;;;;;9.15;6.85;;;27.80;99.90;;;;;;5033121;28;20339;-60
2023/06/19 12:25:22;;;;;;;6.22;5.38;;;27.60;99.90;;;;;;5040764;28;20207;-60
2023/06/19 12:27:50;;;;;;;6.80;4.95;;;27.70;99.90;;;;;;5039453;28;20234;-60
2023/06/19 12:30:20;;;;;;;6.38;5.47;;;29.00;99.90;;;;;;5042797;28;20204;-60
2023/06/19 12:32:48;;;;;;;6.38;5.20;;;29.20;99.90;;;;;;5041305;28;20664;-60
2023/06/19 12:35:16;;;;;;;6.22;5.63;;;28.70;99.90;;;;;;5018918;28;20203;-60
2023/06/19 12:37:43;;;;;;;7.18;5.13;;;28.40;99.90;;;;;;5031039;28;20242;-59
2023/06/19 12:40:10;;;;;;;6.38;5.55;;;29.10;99.90;;;;;;4999461;28;20196;-59
2023/06/19 12:42:37;;;;;;;6.80;5.20;;;28.80;99.90;;;;;;5036234;28;20203;-59
2023/06/19 12:45:05;;;;;;;10.23;5.80;;;29.50;99.90;;;;;;5035964;28;20192;-59
2023/06/19 12:47:32;;;;;;;5.38;4.88;;;28.90;99.90;;;;;;5035140;28;20205;-60